Time;durP1;ratioP1;P1;durP2;ratioP2;P2;SDS_P1;SDS_P2;PMS_P1;PMS_P2;Temp;Humidity;BMP_temperature;BMP_pressure;BME280_temperature;BME280_humidity;BME280_pressure;Samples;Min_cycle;Max_cycle;Signal;HPM_P1;HPM_P2
2020/12/16 00:00:34;;;;;;;12.63;6.80;;;14.30;75.20;;;;;;2089627;28;20052;-75
2020/12/16 00:01:35;;;;;;;15.57;7.80;;;14.30;73.90;;;;;;2090357;28;20049;-75
2020/12/16 00:02:37;;;;;;;11.93;6.90;;;14.30;73.70;;;;;;2090260;28;20076;-75
2020/12/16 00:03:39;;;;;;;11.00;6.47;;;14.30;74.20;;;;;;2089954;28;20408;-77
2020/12/16 00:04:41;;;;;;;8.07;5.25;;;14.30;73.80;;;;;;2089381;28;20439;-76
2020/12/16 00:05:44;;;;;;;8.60;5.40;;;14.30;74.90;;;;;;2081406;28;20482;-75
2020/12/16 00:06:52;;;;;;;10.73;5.65;;;14.30;73.90;;;;;;2089846;28;20076;-77
2020/12/16 00:07:54;;;;;;;14.45;6.45;;;14.30;74.00;;;;;;2091452;28;20040;-75
2020/12/16 00:08:56;;;;;;;8.95;4.93;;;14.30;73.90;;;;;;2092252;28;20048;-76
2020/12/16 00:09:58;;;;;;;11.82;6.50;;;14.30;75.20;;;;;;2091735;28;20045;-76
2020/12/16 00:10:59;;;;;;;12.50;5.82;;;14.30;74.00;;;;;;2092219;28;20073;-76
2020/12/16 00:12:02;;;;;;;12.52;7.05;;;14.40;74.30;;;;;;2091603;28;20045;-76
2020/12/16 00:13:04;;;;;;;13.05;6.25;;;14.30;74.00;;;;;;2091765;28;20056;-75
2020/12/16 00:14:05;;;;;;;12.65;6.53;;;14.30;74.00;;;;;;2091967;28;20048;-75
2020/12/16 00:15:08;;;;;;;10.25;5.55;;;14.30;74.00;;;;;;2091626;28;20045;-75
2020/12/16 00:16:10;;;;;;;9.80;5.35;;;14.40;74.50;;;;;;2091688;28;20079;-75
2020/12/16 00:17:12;;;;;;;10.98;6.38;;;14.40;74.80;;;;;;2091762;28;20056;-75
2020/12/16 00:18:14;;;;;;;10.40;5.30;;;14.50;73.90;;;;;;2091248;28;20056;-75
2020/12/16 00:19:16;;;;;;;;;;;14.50;75.00;;;;;;2091495;28;20049;-76
2020/12/16 00:20:18;;;;;;;9.57;5.75;;;14.50;73.90;;;;;;2092121;28;19920;-76
2020/12/16 00:21:22;;;;;;;8.85;4.53;;;14.70;74.50;;;;;;2091970;28;20052;-75
2020/12/16 00:22:24;;;;;;;13.77;6.72;;;14.70;74.20;;;;;;2091977;28;20049;-75
2020/12/16 00:23:26;;;;;;;11.65;6.03;;;14.80;73.60;;;;;;2090648;28;20100;-76
2020/12/16 00:24:27;;;;;;;12.63;6.20;;;14.70;73.40;;;;;;2091110;28;20044;-75
2020/12/16 00:25:31;;;;;;;10.30;6.60;;;14.70;73.30;;;;;;2090656;28;20045;-75
2020/12/16 00:26:35;;;;;;;8.45;4.70;;;14.70;73.80;;;;;;2091748;28;20051;-75
2020/12/16 00:27:37;;;;;;;9.95;5.32;;;14.80;74.10;;;;;;2090610;28;20076;-75
2020/12/16 00:28:39;;;;;;;10.57;6.22;;;14.80;73.50;;;;;;2091976;28;20052;-76
2020/12/16 00:29:42;;;;;;;10.13;5.47;;;14.80;73.20;;;;;;2091035;28;20056;-76
2020/12/16 00:30:47;;;;;;;13.00;6.22;;;14.80;73.40;;;;;;2092110;28;20055;-76
2020/12/16 00:31:50;;;;;;;8.02;5.28;;;14.80;73.20;;;;;;2092745;28;20041;-75
2020/12/16 00:32:53;;;;;;;15.40;6.50;;;14.80;73.60;;;;;;2090592;28;20087;-75
2020/12/16 00:33:55;;;;;;;12.70;6.05;;;14.80;73.40;;;;;;2081740;28;20041;-75
2020/12/16 00:34:57;;;;;;;11.93;4.90;;;14.80;73.00;;;;;;2089513;28;20375;-75
2020/12/16 00:35:59;;;;;;;13.68;6.50;;;14.80;73.50;;;;;;2089813;28;20069;-76
2020/12/16 00:37:01;;;;;;;12.25;6.70;;;14.70;72.80;;;;;;2089678;28;20045;-75
2020/12/16 00:38:02;;;;;;;11.45;4.68;;;14.70;73.00;;;;;;2089505;28;20088;-75
2020/12/16 00:39:05;;;;;;;12.43;6.10;;;14.80;73.70;;;;;;2089845;28;20049;-75
2020/12/16 00:40:08;;;;;;;10.77;5.63;;;14.70;72.80;;;;;;2090396;28;20055;-75
2020/12/16 00:41:10;;;;;;;11.35;5.57;;;14.70;73.30;;;;;;2090748;28;20417;-75
2020/12/16 00:42:14;;;;;;;11.55;4.90;;;14.70;73.00;;;;;;2091009;28;20079;-76
2020/12/16 00:43:17;;;;;;;11.32;5.45;;;14.70;73.50;;;;;;2091201;28;20079;-75
2020/12/16 00:44:19;;;;;;;10.98;5.35;;;14.70;72.80;;;;;;2090784;28;20076;-75
2020/12/16 00:45:20;;;;;;;9.55;5.47;;;14.60;73.10;;;;;;2090388;28;20045;-75
2020/12/16 00:46:24;;;;;;;11.95;5.60;;;14.60;73.50;;;;;;2090884;28;20060;-75
2020/12/16 00:47:27;;;;;;;13.35;6.32;;;14.50;72.30;;;;;;2090333;28;20056;-76
2020/12/16 00:48:31;;;;;;;11.88;5.90;;;14.50;72.90;;;;;;2090657;28;20467;-75
2020/12/16 00:49:33;;;;;;;9.93;4.72;;;14.50;73.20;;;;;;2090491;28;20075;-75
2020/12/16 00:50:37;;;;;;;11.38;5.20;;;14.70;74.50;;;;;;2090559;28;20521;-76
2020/12/16 00:51:39;;;;;;;9.07;4.68;;;14.70;73.70;;;;;;2090021;28;20076;-75
2020/12/16 00:52:44;;;;;;;21.38;5.63;;;14.70;73.70;;;;;;2090159;28;20140;-75
2020/12/16 00:53:49;;;;;;;8.77;4.32;;;14.70;73.20;;;;;;2090911;28;20068;-76
2020/12/16 00:54:50;;;;;;;15.32;5.70;;;14.70;73.90;;;;;;2091093;28;20530;-76
2020/12/16 00:55:52;;;;;;;;;;;14.70;72.90;;;;;;2090434;28;20470;-75
2020/12/16 00:56:56;;;;;;;11.10;6.28;;;14.70;73.10;;;;;;2089700;28;20289;-76
2020/12/16 00:57:58;;;;;;;8.32;4.40;;;14.60;72.80;;;;;;2089451;28;20056;-77
2020/12/16 00:59:01;;;;;;;8.25;4.22;;;14.70;74.60;;;;;;2091253;28;20076;-76
2020/12/16 01:00:05;;;;;;;8.45;4.32;;;14.80;74.00;;;;;;2093128;28;20052;-76
2020/12/16 01:01:07;;;;;;;11.25;4.55;;;14.90;74.20;;;;;;2094220;28;20055;-75
2020/12/16 01:02:10;;;;;;;10.57;5.65;;;15.00;73.80;;;;;;2092556;28;20402;-77
2020/12/16 01:03:12;;;;;;;8.52;5.07;;;15.00;72.50;;;;;;2093820;28;20449;-76
2020/12/16 01:04:16;;;;;;;14.23;7.68;;;15.00;72.40;;;;;;2094663;28;20083;-77
2020/12/16 01:05:19;;;;;;;7.10;4.25;;;14.90;71.60;;;;;;2094677;28;20092;-77
2020/12/16 01:06:22;;;;;;;9.88;6.15;;;14.90;72.90;;;;;;2094642;28;20041;-77
2020/12/16 01:07:24;;;;;;;14.15;6.63;;;14.90;72.10;;;;;;2094659;28;20041;-76
2020/12/16 01:08:26;;;;;;;9.07;5.97;;;14.80;72.40;;;;;;2092951;28;20040;-76
2020/12/16 01:09:28;;;;;;;9.23;5.00;;;14.90;72.90;;;;;;2094346;28;20041;-77
2020/12/16 01:10:33;;;;;;;9.80;5.07;;;14.90;73.00;;;;;;2092898;28;20147;-76
2020/12/16 01:11:36;;;;;;;6.43;4.63;;;14.90;72.50;;;;;;2092933;28;20060;-77
2020/12/16 01:12:39;;;;;;;8.82;5.32;;;14.80;72.50;;;;;;2093694;28;20045;-77
2020/12/16 01:13:41;;;;;;;9.18;5.70;;;14.80;72.10;;;;;;2093345;28;20073;-76
2020/12/16 01:14:44;;;;;;;13.18;4.65;;;14.80;72.60;;;;;;2093577;28;20059;-77
2020/12/16 01:15:47;;;;;;;7.28;5.07;;;14.70;72.90;;;;;;2091882;28;20041;-76
2020/12/16 01:16:49;;;;;;;8.75;5.35;;;14.70;73.00;;;;;;2084746;28;20502;-77
2020/12/16 01:17:53;;;;;;;10.32;5.50;;;14.70;72.80;;;;;;2089930;28;20071;-76
2020/12/16 01:18:55;;;;;;;9.45;5.88;;;14.70;72.70;;;;;;2085680;28;20052;-76
2020/12/16 01:19:57;;;;;;;8.43;4.15;;;14.60;72.50;;;;;;2086024;28;20403;-77
2020/12/16 01:20:59;;;;;;;12.82;4.97;;;14.70;73.90;;;;;;2086460;28;20041;-77
2020/12/16 01:22:00;;;;;;;;;;;14.70;72.80;;;;;;2086800;28;20037;-76
2020/12/16 01:23:02;;;;;;;13.35;5.75;;;14.60;72.90;;;;;;2086537;28;19972;-76
2020/12/16 01:24:06;;;;;;;;;;;14.70;72.80;;;;;;2086388;28;20445;-78
2020/12/16 01:25:09;;;;;;;8.60;3.90;;;14.60;72.60;;;;;;2085836;28;19927;-76
2020/12/16 01:26:11;;;;;;;10.00;5.50;;;14.60;73.90;;;;;;2084119;28;20052;-77
2020/12/16 01:27:13;;;;;;;9.32;4.93;;;14.60;73.30;;;;;;2086010;28;20137;-76
2020/12/16 01:28:15;;;;;;;9.07;5.82;;;14.60;73.70;;;;;;2086664;28;20041;-77
2020/12/16 01:29:17;;;;;;;7.40;4.65;;;14.60;73.30;;;;;;2094444;28;20060;-77
2020/12/16 01:30:20;;;;;;;11.73;6.07;;;14.70;73.50;;;;;;2093964;28;20045;-76
2020/12/16 01:31:25;;;;;;;10.15;5.97;;;14.60;72.80;;;;;;2086437;28;20054;-76
2020/12/16 01:32:28;;;;;;;8.38;4.50;;;14.60;72.50;;;;;;2093907;28;20052;-77
2020/12/16 01:33:31;;;;;;;14.60;5.80;;;14.50;73.10;;;;;;2094887;28;20079;-76
2020/12/16 01:34:32;;;;;;;12.82;6.45;;;14.60;73.20;;;;;;2088659;28;20292;-76
2020/12/16 01:35:34;;;;;;;12.25;6.18;;;14.50;72.50;;;;;;2088192;28;20052;-77
2020/12/16 01:36:38;;;;;;;12.25;5.20;;;14.50;73.10;;;;;;2088319;28;20060;-77
2020/12/16 01:37:39;;;;;;;9.18;5.22;;;14.50;74.10;;;;;;2087893;28;20049;-76
2020/12/16 01:38:41;;;;;;;11.40;5.80;;;14.50;73.40;;;;;;2087826;28;20056;-77
2020/12/16 01:39:43;;;;;;;10.38;6.18;;;14.50;73.00;;;;;;2088695;28;20053;-77
2020/12/16 01:40:45;;;;;;;14.68;5.65;;;14.50;72.80;;;;;;2088091;28;20076;-77
2020/12/16 01:41:50;;;;;;;8.90;4.13;;;14.40;73.50;;;;;;2087419;28;20609;-76
2020/12/16 01:42:52;;;;;;;12.70;6.40;;;14.50;74.30;;;;;;2087753;28;20045;-76
2020/12/16 01:43:55;;;;;;;11.02;6.18;;;14.50;72.90;;;;;;2088065;28;20050;-76
2020/12/16 01:44:56;;;;;;;9.90;6.47;;;14.40;73.20;;;;;;2096007;28;20049;-76
2020/12/16 01:45:59;;;;;;;12.68;6.13;;;14.40;73.10;;;;;;2094928;28;20045;-76
2020/12/16 01:47:02;;;;;;;9.07;5.13;;;14.40;73.50;;;;;;2086524;28;20662;-76
2020/12/16 01:48:06;;;;;;;13.30;6.28;;;14.40;73.60;;;;;;2086875;28;20046;-76
2020/12/16 01:49:07;;;;;;;9.48;4.53;;;14.40;73.10;;;;;;2086606;28;20402;-76
2020/12/16 01:50:11;;;;;;;8.20;4.78;;;14.40;74.00;;;;;;2086441;28;20413;-77
2020/12/16 01:51:20;;;;;;;10.25;5.75;;;14.40;73.80;;;;;;2094196;28;20056;-77
2020/12/16 01:52:25;;;;;;;13.93;7.15;;;14.50;73.40;;;;;;2092614;28;20044;-76
2020/12/16 01:53:29;;;;;;;11.70;6.63;;;14.40;73.20;;;;;;2086239;28;20437;-76
2020/12/16 01:54:36;;;;;;;13.27;6.82;;;14.40;73.10;;;;;;2086395;28;20041;-76
2020/12/16 01:55:38;;;;;;;8.45;4.93;;;14.40;73.30;;;;;;2086117;28;20046;-77
2020/12/16 01:56:40;;;;;;;;;;;14.40;74.00;;;;;;2094222;28;20041;-76
2020/12/16 01:57:49;;;;;;;7.63;4.57;;;14.40;73.40;;;;;;2093757;28;19921;-76
2020/12/16 01:58:54;;;;;;;5.45;3.78;;;14.40;74.60;;;;;;2091671;28;20064;-76
2020/12/16 01:59:59;;;;;;;7.53;3.95;;;14.50;75.00;;;;;;2084192;28;20053;-75
2020/12/16 02:01:02;;;;;;;10.15;6.22;;;14.60;74.20;;;;;;2084522;28;20057;-77
2020/12/16 02:02:07;;;;;;;10.73;6.20;;;14.60;73.60;;;;;;2085592;28;20056;-77
2020/12/16 02:03:15;;;;;;;8.98;4.82;;;14.60;73.10;;;;;;2085141;28;20053;-76
2020/12/16 02:04:22;;;;;;;7.88;4.13;;;14.60;73.30;;;;;;2084405;28;20042;-75
2020/12/16 02:05:26;;;;;;;10.38;5.05;;;14.70;74.50;;;;;;2091646;28;20095;-76
2020/12/16 02:06:32;;;;;;;9.07;5.50;;;14.70;72.70;;;;;;2090174;28;20072;-75
2020/12/16 02:07:36;;;;;;;7.65;5.10;;;14.70;73.60;;;;;;2090130;28;20051;-75
2020/12/16 02:08:45;;;;;;;14.40;7.80;;;14.80;73.10;;;;;;2082800;28;20049;-76
2020/12/16 02:09:47;;;;;;;10.10;5.63;;;14.70;72.10;;;;;;2084044;28;20051;-75
2020/12/16 02:10:49;;;;;;;8.55;5.97;;;14.80;73.20;;;;;;2084360;28;20045;-76
2020/12/16 02:11:52;;;;;;;9.30;5.07;;;14.70;72.40;;;;;;2083569;28;20403;-76
2020/12/16 02:12:53;;;;;;;;;;;14.70;72.80;;;;;;2085387;28;20494;-77
2020/12/16 02:13:55;;;;;;;9.52;5.18;;;14.80;73.00;;;;;;2084883;28;20359;-77
2020/12/16 02:14:57;;;;;;;8.77;4.75;;;14.70;72.90;;;;;;2084823;28;20525;-77
2020/12/16 02:15:59;;;;;;;12.60;5.70;;;14.70;73.10;;;;;;2085235;28;20052;-77
2020/12/16 02:17:09;;;;;;;9.45;5.20;;;14.70;72.80;;;;;;2093221;28;20102;-77
2020/12/16 02:18:11;;;;;;;11.25;5.60;;;14.70;73.00;;;;;;2092384;28;20053;-76
2020/12/16 02:19:19;;;;;;;9.65;6.32;;;14.70;73.10;;;;;;2085627;28;20049;-76
2020/12/16 02:20:20;;;;;;;9.68;6.00;;;14.70;73.00;;;;;;2085929;28;20049;-76
2020/12/16 02:21:22;;;;;;;;;;;14.70;72.70;;;;;;2086708;28;20432;-76
2020/12/16 02:22:24;;;;;;;9.38;5.57;;;14.60;72.30;;;;;;2085593;28;20003;-76
2020/12/16 02:23:27;;;;;;;10.45;6.30;;;14.60;73.30;;;;;;2085638;28;20084;-77
2020/12/16 02:24:29;;;;;;;;;;;14.70;73.20;;;;;;2086448;28;20056;-76
2020/12/16 02:25:33;;;;;;;10.45;5.05;;;14.60;72.70;;;;;;2084338;28;19921;-76
2020/12/16 02:26:37;;;;;;;12.68;5.80;;;14.60;73.50;;;;;;2085530;28;20054;-76
2020/12/16 02:27:41;;;;;;;11.38;6.55;;;14.60;73.20;;;;;;2085389;28;20045;-76
2020/12/16 02:28:43;;;;;;;11.80;7.95;;;14.60;73.10;;;;;;2084480;28;20113;-76
2020/12/16 02:29:44;;;;;;;;;;;14.70;72.60;;;;;;2086258;28;20049;-76
2020/12/16 02:30:46;;;;;;;13.88;8.45;;;14.70;72.80;;;;;;2086161;28;19921;-75
2020/12/16 02:31:51;;;;;;;17.50;10.27;;;14.60;72.40;;;;;;2086068;28;20053;-76
2020/12/16 02:32:53;;;;;;;9.68;5.43;;;14.60;72.30;;;;;;2086403;28;20049;-76
2020/12/16 02:33:54;;;;;;;17.45;10.07;;;14.60;73.70;;;;;;2086207;28;20409;-76
2020/12/16 02:34:58;;;;;;;11.68;7.00;;;14.60;73.00;;;;;;2086271;28;20136;-77
2020/12/16 02:36:00;;;;;;;19.30;11.13;;;14.60;73.40;;;;;;2085608;28;20053;-76
2020/12/16 02:37:02;;;;;;;19.83;10.98;;;14.50;72.30;;;;;;2085402;28;20053;-76
2020/12/16 02:38:06;;;;;;;21.50;12.77;;;14.50;72.40;;;;;;2085100;28;20049;-76
2020/12/16 02:39:10;;;;;;;;;;;14.50;72.20;;;;;;2085892;28;20068;-76
2020/12/16 02:40:14;;;;;;;23.55;12.25;;;14.50;72.20;;;;;;2085419;28;20355;-76
2020/12/16 02:41:19;;;;;;;20.40;9.90;;;14.40;72.60;;;;;;2084487;28;20057;-77
2020/12/16 02:42:23;;;;;;;13.93;8.02;;;14.40;72.60;;;;;;2095677;28;20036;-77
2020/12/16 02:43:24;;;;;;;15.18;8.38;;;14.40;73.10;;;;;;2094150;28;20052;-76
2020/12/16 02:44:26;;;;;;;15.88;9.30;;;14.40;73.40;;;;;;2093512;28;20049;-76
2020/12/16 02:45:28;;;;;;;9.95;5.88;;;14.40;73.10;;;;;;2094393;28;20041;-76
2020/12/16 02:46:30;;;;;;;16.77;9.90;;;14.40;74.50;;;;;;2094914;28;20517;-77
2020/12/16 02:47:33;;;;;;;12.82;9.07;;;14.50;73.00;;;;;;2093777;28;20536;-76
2020/12/16 02:48:36;;;;;;;20.42;10.50;;;14.40;72.90;;;;;;2086389;28;20048;-77
2020/12/16 02:49:37;;;;;;;15.70;9.88;;;14.40;72.60;;;;;;2086080;28;20046;-76
2020/12/16 02:50:39;;;;;;;15.25;8.77;;;14.40;72.50;;;;;;2085585;28;20053;-75
2020/12/16 02:51:41;;;;;;;;;;;14.40;73.00;;;;;;2093488;28;20049;-76
2020/12/16 02:52:42;;;;;;;24.67;12.18;;;14.30;73.60;;;;;;2092600;28;20274;-76
2020/12/16 02:53:44;;;;;;;12.20;8.20;;;14.30;73.20;;;;;;2084664;28;20052;-76
2020/12/16 02:54:45;;;;;;;19.27;11.43;;;14.30;73.70;;;;;;2084051;28;20402;-76
2020/12/16 02:55:47;;;;;;;14.52;8.95;;;14.30;73.70;;;;;;2083728;28;20052;-75
2020/12/16 02:56:51;;;;;;;12.50;8.20;;;14.30;73.60;;;;;;2083852;28;20439;-76
2020/12/16 02:57:52;;;;;;;16.20;9.60;;;14.30;74.10;;;;;;2084237;28;20077;-75
2020/12/16 02:58:54;;;;;;;21.90;12.65;;;14.30;73.40;;;;;;2083508;28;20045;-76
2020/12/16 02:59:58;;;;;;;20.10;9.23;;;14.20;72.90;;;;;;2082765;28;20284;-76
2020/12/16 03:00:59;;;;;;;15.18;8.45;;;14.20;73.10;;;;;;2090074;28;20049;-75
2020/12/16 03:02:01;;;;;;;15.20;9.15;;;14.20;74.10;;;;;;2089799;28;20045;-75
2020/12/16 03:03:03;;;;;;;13.18;7.85;;;14.30;73.50;;;;;;2090265;28;20045;-76
2020/12/16 03:04:06;;;;;;;15.00;8.43;;;14.20;73.70;;;;;;2082063;28;20061;-76
2020/12/16 03:05:07;;;;;;;;;;;14.20;73.40;;;;;;2082061;28;20053;-76
2020/12/16 03:06:14;;;;;;;15.95;9.88;;;14.20;74.20;;;;;;2081115;28;20164;-75
2020/12/16 03:07:17;;;;;;;10.60;6.22;;;14.20;73.80;;;;;;2082614;28;20063;-76
2020/12/16 03:08:19;;;;;;;13.68;8.10;;;14.30;75.20;;;;;;2081985;28;20485;-76
2020/12/16 03:09:23;;;;;;;15.48;8.68;;;14.40;74.00;;;;;;2081721;28;20548;-76
2020/12/16 03:10:25;;;;;;;17.30;8.88;;;14.40;73.00;;;;;;2082744;28;20080;-75
2020/12/16 03:11:27;;;;;;;13.65;8.05;;;14.40;72.90;;;;;;2090332;28;20080;-77
2020/12/16 03:12:29;;;;;;;;;;;14.40;73.60;;;;;;2091168;28;20485;-76
2020/12/16 03:13:31;;;;;;;11.93;7.55;;;14.40;73.70;;;;;;2083030;28;19975;-76
2020/12/16 03:14:34;;;;;;;14.50;8.52;;;14.40;73.60;;;;;;2082331;28;20057;-76
2020/12/16 03:15:36;;;;;;;15.73;10.05;;;14.40;73.50;;;;;;2082051;28;20088;-76
2020/12/16 03:16:38;;;;;;;;;;;14.30;73.00;;;;;;2083581;28;20107;-76
2020/12/16 03:17:39;;;;;;;15.45;9.60;;;14.30;73.80;;;;;;2082721;28;20357;-75
2020/12/16 03:18:41;;;;;;;17.40;8.90;;;14.30;73.20;;;;;;2088575;28;20053;-75
2020/12/16 03:19:42;;;;;;;18.58;10.65;;;14.30;73.20;;;;;;2090778;28;20056;-76
2020/12/16 03:20:44;;;;;;;11.65;6.88;;;14.20;72.60;;;;;;2090802;28;20054;-76
2020/12/16 03:21:46;;;;;;;14.82;8.95;;;14.20;74.00;;;;;;2091750;28;20427;-76
2020/12/16 03:22:54;;;;;;;13.35;7.68;;;14.20;73.80;;;;;;2092931;28;20106;-76
2020/12/16 03:23:56;;;;;;;11.88;7.97;;;14.30;73.70;;;;;;2092879;28;20044;-76
2020/12/16 03:25:00;;;;;;;12.93;7.85;;;14.30;73.20;;;;;;2093968;28;20447;-77
2020/12/16 03:26:04;;;;;;;12.45;8.85;;;14.30;73.10;;;;;;2092912;28;20144;-76
2020/12/16 03:27:06;;;;;;;13.32;8.18;;;14.20;72.20;;;;;;2090811;28;20119;-76
2020/12/16 03:28:09;;;;;;;12.15;6.15;;;14.20;72.80;;;;;;2090743;28;20045;-75
2020/12/16 03:29:12;;;;;;;11.38;7.03;;;14.20;73.90;;;;;;2090522;28;20437;-76
2020/12/16 03:30:16;;;;;;;13.13;8.10;;;14.20;73.90;;;;;;2090857;28;20191;-76
2020/12/16 03:31:18;;;;;;;14.27;9.55;;;14.20;73.20;;;;;;2090734;28;20508;-76
2020/12/16 03:32:20;;;;;;;14.88;9.60;;;14.20;72.90;;;;;;2090875;28;20049;-76
2020/12/16 03:33:22;;;;;;;10.95;6.55;;;14.10;72.80;;;;;;2090938;28;20041;-76
2020/12/16 03:34:23;;;;;;;12.15;7.75;;;14.10;74.50;;;;;;2090410;28;20088;-75
2020/12/16 03:35:25;;;;;;;13.43;6.95;;;14.20;73.50;;;;;;2090805;28;20045;-75
2020/12/16 03:36:27;;;;;;;12.75;7.60;;;14.20;74.10;;;;;;2090735;28;20083;-76
2020/12/16 03:37:28;;;;;;;12.85;8.50;;;14.20;73.90;;;;;;2090606;28;20071;-75
2020/12/16 03:38:30;;;;;;;9.43;5.75;;;14.10;74.10;;;;;;2090550;28;20078;-75
2020/12/16 03:39:32;;;;;;;11.65;7.63;;;14.20;74.50;;;;;;2091008;28;20045;-75
2020/12/16 03:40:34;;;;;;;10.95;7.72;;;14.20;74.10;;;;;;2091820;28;20163;-76
2020/12/16 03:41:36;;;;;;;9.27;6.50;;;14.20;73.60;;;;;;2093172;28;20056;-75
2020/12/16 03:42:41;;;;;;;11.75;7.03;;;14.20;74.00;;;;;;2093480;28;20044;-77
2020/12/16 03:43:45;;;;;;;10.32;6.18;;;14.20;73.50;;;;;;2094287;28;20064;-75
2020/12/16 03:44:47;;;;;;;12.25;7.45;;;14.30;75.00;;;;;;2092899;28;20045;-76
2020/12/16 03:45:49;;;;;;;13.13;8.65;;;14.40;73.60;;;;;;2092980;28;20078;-75
2020/12/16 03:46:52;;;;;;;11.30;7.05;;;14.30;73.20;;;;;;2092466;28;20072;-75
2020/12/16 03:47:53;;;;;;;;;;;14.30;73.80;;;;;;2100744;28;20055;-76
2020/12/16 03:48:55;;;;;;;15.30;9.15;;;14.40;73.60;;;;;;2099868;28;19921;-76
2020/12/16 03:49:56;;;;;;;10.82;7.72;;;14.40;72.90;;;;;;2091919;28;20048;-76
2020/12/16 03:50:59;;;;;;;14.43;9.05;;;14.30;73.30;;;;;;2091784;28;20045;-75
2020/12/16 03:52:01;;;;;;;15.93;8.15;;;14.30;72.60;;;;;;2099588;28;20048;-76
2020/12/16 03:53:13;;;;;;;13.00;8.95;;;14.30;73.00;;;;;;2098681;28;20497;-75
2020/12/16 03:54:15;;;;;;;;;;;14.30;72.80;;;;;;2092517;28;20041;-76
2020/12/16 03:55:17;;;;;;;13.32;7.68;;;14.20;74.10;;;;;;2092865;28;19967;-75
2020/12/16 03:56:18;;;;;;;9.05;5.80;;;14.20;73.30;;;;;;2101045;28;20052;-76
2020/12/16 03:57:20;;;;;;;9.80;6.40;;;14.30;74.60;;;;;;2100040;28;20139;-76
2020/12/16 03:58:21;;;;;;;8.77;6.10;;;14.40;73.50;;;;;;2100524;28;20044;-76
2020/12/16 03:59:27;;;;;;;11.27;7.72;;;14.50;73.60;;;;;;2101164;28;20053;-76
2020/12/16 04:00:28;;;;;;;9.85;5.82;;;14.50;73.00;;;;;;2093769;28;20056;-75
2020/12/16 04:01:30;;;;;;;12.88;8.50;;;14.50;73.70;;;;;;2094053;28;20053;-76
2020/12/16 04:02:32;;;;;;;10.68;6.07;;;14.60;72.70;;;;;;2094213;28;20052;-76
2020/12/16 04:03:35;;;;;;;12.88;8.38;;;14.60;73.40;;;;;;2093969;28;20064;-76
2020/12/16 04:04:37;;;;;;;10.32;6.80;;;14.60;71.80;;;;;;2093709;28;20055;-76
2020/12/16 04:05:38;;;;;;;11.07;6.75;;;14.60;72.70;;;;;;2093605;28;20520;-76
2020/12/16 04:06:40;;;;;;;9.30;6.05;;;14.60;72.60;;;;;;2109312;28;20043;-75
2020/12/16 04:07:42;;;;;;;10.07;6.82;;;14.60;72.60;;;;;;2108959;28;20059;-76
2020/12/16 04:08:44;;;;;;;12.07;7.57;;;14.60;72.40;;;;;;2092692;28;20056;-75
2020/12/16 04:09:46;;;;;;;10.98;6.65;;;14.50;72.10;;;;;;2092997;28;20055;-75
2020/12/16 04:10:47;;;;;;;8.80;5.78;;;14.50;72.30;;;;;;2093163;28;20047;-76
2020/12/16 04:11:50;;;;;;;12.43;7.20;;;14.50;72.90;;;;;;2092743;28;20088;-77
2020/12/16 04:12:51;;;;;;;13.95;7.65;;;14.50;71.90;;;;;;2093351;28;20077;-76
2020/12/16 04:13:53;;;;;;;11.43;7.55;;;14.40;72.30;;;;;;2094066;28;20041;-76
2020/12/16 04:14:55;;;;;;;15.43;8.13;;;14.40;72.20;;;;;;2093519;28;20037;-77
2020/12/16 04:15:57;;;;;;;15.73;10.07;;;14.40;72.70;;;;;;2093964;28;20056;-76
2020/12/16 04:16:59;;;;;;;10.32;6.13;;;14.40;71.70;;;;;;2093297;28;20473;-76
2020/12/16 04:18:00;;;;;;;8.70;5.70;;;14.40;73.50;;;;;;2093463;28;20076;-76
2020/12/16 04:19:02;;;;;;;10.23;5.47;;;14.40;73.40;;;;;;2093221;28;20603;-76
2020/12/16 04:20:07;;;;;;;11.45;7.15;;;14.50;73.90;;;;;;2093815;28;20053;-76
2020/12/16 04:21:10;;;;;;;11.18;6.68;;;14.50;72.50;;;;;;2093582;28;20355;-76
2020/12/16 04:22:11;;;;;;;10.90;6.28;;;14.50;72.90;;;;;;2092777;28;20060;-76
2020/12/16 04:23:29;;;;;;;10.57;6.95;;;14.60;73.10;;;;;;2092924;28;20056;-76
2020/12/16 04:24:31;;;;;;;13.77;9.00;;;14.70;72.10;;;;;;2092747;28;20052;-76
2020/12/16 04:25:33;;;;;;;10.38;6.30;;;14.70;71.60;;;;;;2091295;28;20422;-76
2020/12/16 04:26:35;;;;;;;10.38;6.32;;;14.70;72.30;;;;;;2098367;28;20513;-75
2020/12/16 04:27:38;;;;;;;13.10;8.30;;;14.70;72.70;;;;;;2098960;28;20087;-77
2020/12/16 04:28:40;;;;;;;11.48;7.72;;;14.60;71.40;;;;;;2100007;28;20083;-77
2020/12/16 04:29:42;;;;;;;8.95;5.88;;;14.50;71.70;;;;;;2099387;28;20107;-76
2020/12/16 04:30:45;;;;;;;14.93;8.70;;;14.60;72.60;;;;;;2092028;28;20052;-77
2020/12/16 04:31:50;;;;;;;13.63;8.90;;;14.60;71.60;;;;;;2092378;28;20037;-76
2020/12/16 04:32:56;;;;;;;8.93;5.80;;;14.60;71.80;;;;;;2092310;28;20071;-76
2020/12/16 04:33:59;;;;;;;9.02;5.53;;;14.60;72.30;;;;;;2092083;28;20510;-77
2020/12/16 04:35:01;;;;;;;10.07;6.40;;;14.70;72.60;;;;;;2091764;28;20056;-76
2020/12/16 04:36:03;;;;;;;;;;;14.70;72.00;;;;;;2092465;28;20052;-76
2020/12/16 04:37:07;;;;;;;8.13;5.20;;;14.40;71.50;;;;;;2091085;28;20004;-76
2020/12/16 04:38:09;;;;;;;11.65;6.22;;;14.50;73.40;;;;;;2091724;28;20536;-77
2020/12/16 04:39:11;;;;;;;10.70;6.35;;;14.50;72.10;;;;;;2090880;28;20049;-77
2020/12/16 04:40:13;;;;;;;15.07;6.97;;;14.50;72.60;;;;;;2090797;28;20130;-76
2020/12/16 04:41:14;;;;;;;;;;;14.50;72.20;;;;;;2091198;28;20056;-76
2020/12/16 04:42:16;;;;;;;9.07;6.50;;;14.50;72.20;;;;;;2090475;28;19921;-76
2020/12/16 04:43:21;;;;;;;10.35;6.28;;;14.50;72.50;;;;;;2091461;28;20052;-76
2020/12/16 04:44:23;;;;;;;9.07;5.78;;;14.50;72.50;;;;;;2090905;28;20053;-76
2020/12/16 04:45:24;;;;;;;10.07;5.97;;;14.50;72.80;;;;;;2091026;28;20083;-76
2020/12/16 04:46:29;;;;;;;12.85;8.32;;;14.60;73.10;;;;;;2090765;28;20056;-75
2020/12/16 04:47:31;;;;;;;10.73;7.00;;;14.60;72.20;;;;;;2091413;28;20526;-77
2020/12/16 04:48:34;;;;;;;;;;;14.60;72.10;;;;;;2091464;28;20041;-76
2020/12/16 04:49:36;;;;;;;15.15;7.18;;;14.60;71.90;;;;;;2091552;28;19928;-76
2020/12/16 04:50:39;;;;;;;10.48;7.18;;;14.60;71.90;;;;;;2091723;28;20044;-77
2020/12/16 04:51:43;;;;;;;9.45;6.20;;;14.50;71.60;;;;;;2090999;28;20052;-76
2020/12/16 04:52:48;;;;;;;17.38;7.65;;;14.50;72.70;;;;;;2091264;28;20405;-77
2020/12/16 04:53:54;;;;;;;12.18;7.40;;;14.60;72.30;;;;;;2098455;28;20536;-77
2020/12/16 04:55:00;;;;;;;11.15;6.65;;;14.50;71.90;;;;;;2097443;28;20098;-77
2020/12/16 04:56:02;;;;;;;13.23;6.18;;;14.40;72.80;;;;;;2091054;28;20397;-76
2020/12/16 04:57:06;;;;;;;9.73;6.07;;;14.50;73.20;;;;;;2098303;28;20044;-76
2020/12/16 04:58:09;;;;;;;10.10;5.63;;;14.50;73.30;;;;;;2096999;28;20128;-76
2020/12/16 04:59:11;;;;;;;12.73;7.25;;;14.70;72.80;;;;;;2091006;28;20056;-76
2020/12/16 05:00:13;;;;;;;14.30;7.82;;;14.70;71.90;;;;;;2090145;28;20064;-75
2020/12/16 05:01:15;;;;;;;12.63;7.75;;;14.70;71.90;;;;;;2081939;28;20056;-76
2020/12/16 05:02:17;;;;;;;;;;;14.60;72.00;;;;;;2082115;28;20246;-76
2020/12/16 05:03:19;;;;;;;12.57;6.53;;;14.60;72.20;;;;;;2089115;28;20062;-76
2020/12/16 05:04:22;;;;;;;15.82;8.93;;;14.60;72.20;;;;;;2089441;28;20058;-75
2020/12/16 05:05:25;;;;;;;17.85;9.50;;;14.60;71.30;;;;;;2089726;28;20085;-76
2020/12/16 05:06:37;;;;;;;12.50;8.95;;;14.50;71.50;;;;;;2089530;28;20041;-76
2020/12/16 05:07:42;;;;;;;8.85;6.03;;;14.50;72.60;;;;;;2089494;28;20478;-76
2020/12/16 05:09:02;;;;;;;13.82;6.70;;;14.40;73.10;;;;;;2089481;28;20056;-76
2020/12/16 05:10:06;;;;;;;14.15;6.93;;;14.40;71.90;;;;;;2089882;28;20052;-75
2020/12/16 05:11:08;;;;;;;8.90;6.00;;;14.40;72.90;;;;;;2089370;28;20045;-75
2020/12/16 05:12:19;;;;;;;15.60;7.78;;;14.50;73.30;;;;;;2089970;28;20056;-75
2020/12/16 05:13:24;;;;;;;11.40;6.20;;;14.40;71.90;;;;;;2090153;28;20045;-75
2020/12/16 05:14:27;;;;;;;18.23;7.15;;;14.50;73.20;;;;;;2089997;28;20417;-76
2020/12/16 05:15:28;;;;;;;15.70;8.10;;;14.40;72.20;;;;;;2097585;28;20045;-75
2020/12/16 05:16:30;;;;;;;14.45;7.35;;;14.40;72.10;;;;;;2097363;28;20037;-74
2020/12/16 05:17:34;;;;;;;12.80;7.80;;;14.40;73.00;;;;;;2089966;28;20063;-76
2020/12/16 05:18:35;;;;;;;13.25;8.00;;;14.40;72.40;;;;;;2096781;28;20071;-75
2020/12/16 05:19:41;;;;;;;10.32;6.82;;;14.40;72.50;;;;;;2092898;28;20080;-75
2020/12/16 05:20:48;;;;;;;19.17;7.57;;;14.40;72.70;;;;;;2081241;28;20056;-75
2020/12/16 05:22:09;;;;;;;14.32;7.50;;;14.40;72.70;;;;;;2081581;28;20056;-75
2020/12/16 05:23:13;;;;;;;14.68;7.78;;;14.30;72.90;;;;;;2088543;28;20185;-75
2020/12/16 05:24:20;;;;;;;9.07;5.82;;;14.40;72.70;;;;;;2088577;28;20401;-75
2020/12/16 05:25:22;;;;;;;8.85;6.07;;;14.40;73.70;;;;;;2081840;28;20045;-76
2020/12/16 05:26:35;;;;;;;11.63;6.75;;;14.40;73.20;;;;;;2081336;28;20523;-75
2020/12/16 05:27:38;;;;;;;11.35;6.97;;;14.50;73.20;;;;;;2081550;28;20045;-76